Time;durP1;ratioP1;P1;durP2;ratioP2;P2;SDS_P1;SDS_P2;PMS_P1;PMS_P2;Temp;Humidity;BMP_temperature;BMP_pressure;BME280_temperature;BME280_humidity;BME280_pressure;Samples;Min_cycle;Max_cycle;Signal;HPM_P1;HPM_P2
2022/05/05 00:02:07;;;;;;;12.13;4.90;;;9.90;99.90;;;;;;5085736;28;20057;-63
2022/05/05 00:04:33;;;;;;;13.05;5.10;;;9.90;99.90;;;;;;5083830;28;20063;-63
2022/05/05 00:07:01;;;;;;;10.70;5.10;;;9.90;99.90;;;;;;5081175;28;20040;-61
2022/05/05 00:09:28;;;;;;;9.52;5.25;;;9.90;99.90;;;;;;5088084;28;20113;-62
2022/05/05 00:14:39;;;;;;;10.70;5.20;;;9.90;99.90;;;;;;5089569;28;20064;-62
2022/05/05 00:17:07;;;;;;;11.50;6.15;;;9.80;99.90;;;;;;5086337;28;20049;-62
2022/05/05 00:19:35;;;;;;;9.88;5.10;;;9.80;99.90;;;;;;5087159;28;20078;-62
2022/05/05 00:22:02;;;;;;;9.93;5.55;;;9.80;99.90;;;;;;5089196;28;20139;-62
2022/05/05 00:24:28;;;;;;;10.52;5.60;;;9.80;99.90;;;;;;5087697;28;20116;-63
2022/05/05 00:26:54;;;;;;;10.32;5.30;;;9.70;99.90;;;;;;5085438;28;20150;-63
2022/05/05 00:29:20;;;;;;;11.95;5.65;;;9.70;99.90;;;;;;5087044;28;20147;-62
2022/05/05 00:31:48;;;;;;;9.15;5.30;;;9.70;99.90;;;;;;5086862;28;20119;-62
2022/05/05 00:34:13;;;;;;;9.57;5.30;;;9.60;99.90;;;;;;5084939;28;20047;-62
2022/05/05 00:36:39;;;;;;;10.05;5.05;;;9.60;99.90;;;;;;5087707;28;20043;-63
2022/05/05 00:39:07;;;;;;;9.63;5.20;;;9.60;99.90;;;;;;5087148;28;20047;-61
2022/05/05 00:41:37;;;;;;;12.18;5.38;;;9.60;99.90;;;;;;5086802;28;20073;-62
2022/05/05 00:44:05;;;;;;;10.68;5.28;;;9.60;99.90;;;;;;5087472;28;20039;-63
2022/05/05 00:46:31;;;;;;;11.77;5.40;;;9.60;99.90;;;;;;5086758;28;20090;-62
2022/05/05 00:48:57;;;;;;;15.68;5.75;;;9.60;99.90;;;;;;5089786;28;20032;-62
2022/05/05 00:51:23;;;;;;;11.52;6.13;;;9.60;99.90;;;;;;5078403;28;20052;-63
2022/05/05 00:53:49;;;;;;;10.68;5.60;;;9.60;99.90;;;;;;5086740;28;20111;-61
2022/05/05 00:56:16;;;;;;;10.88;5.63;;;9.60;99.90;;;;;;5084791;28;20079;-61
2022/05/05 00:58:44;;;;;;;11.77;5.60;;;9.60;99.90;;;;;;5083536;28;20052;-62
2022/05/05 01:01:11;;;;;;;14.98;5.60;;;9.60;99.90;;;;;;5084697;28;20104;-62
2022/05/05 01:03:38;;;;;;;9.45;5.18;;;9.60;99.90;;;;;;5085684;28;20477;-62
2022/05/05 01:06:05;;;;;;;11.48;5.40;;;9.60;99.90;;;;;;5082889;28;20059;-61
2022/05/05 01:08:33;;;;;;;12.60;5.63;;;9.50;99.90;;;;;;5087088;28;20108;-63
2022/05/05 01:10:58;;;;;;;10.07;5.47;;;9.50;99.90;;;;;;5084977;28;20056;-62
2022/05/05 01:13:27;;;;;;;10.88;5.50;;;9.50;99.90;;;;;;5086997;28;20164;-62
2022/05/05 01:15:54;;;;;;;12.73;5.47;;;9.50;99.90;;;;;;5088301;28;20044;-62
2022/05/05 01:18:20;;;;;;;10.48;5.18;;;9.50;99.90;;;;;;5085189;28;20383;-61
2022/05/05 01:20:47;;;;;;;9.15;5.32;;;9.50;99.90;;;;;;5086822;28;20047;-63
2022/05/05 01:23:14;;;;;;;13.05;5.32;;;9.40;99.90;;;;;;5085060;28;20055;-61
2022/05/05 01:28:24;;;;;;;9.57;5.20;;;9.40;99.90;;;;;;5084315;28;20044;-62
2022/05/05 01:30:50;;;;;;;13.55;5.28;;;9.40;99.90;;;;;;5083188;28;20325;-63
2022/05/05 01:33:18;;;;;;;12.57;5.80;;;9.30;99.90;;;;;;5088252;28;20058;-62
2022/05/05 01:35:46;;;;;;;9.82;5.53;;;9.30;99.90;;;;;;5085113;28;20089;-62
2022/05/05 01:38:14;;;;;;;8.65;5.07;;;9.30;99.90;;;;;;5081580;28;22002;-62
2022/05/05 01:40:40;;;;;;;13.15;5.50;;;9.20;99.90;;;;;;5088238;28;20054;-61
2022/05/05 01:43:09;;;;;;;15.05;5.63;;;9.20;99.90;;;;;;5085805;28;20078;-62
2022/05/05 01:45:35;;;;;;;11.80;5.53;;;9.20;99.90;;;;;;5084615;28;20088;-64
2022/05/05 01:48:02;;;;;;;10.52;5.72;;;9.20;99.90;;;;;;5086759;28;20050;-62
2022/05/05 01:50:31;;;;;;;9.82;5.80;;;9.20;99.90;;;;;;5085359;28;20040;-62
2022/05/05 01:52:58;;;;;;;11.52;5.43;;;9.10;99.90;;;;;;5087179;28;20032;-62
2022/05/05 01:55:23;;;;;;;11.23;5.57;;;9.10;99.90;;;;;;5084508;28;20403;-62
2022/05/05 01:57:49;;;;;;;8.82;5.22;;;9.10;99.90;;;;;;5083502;28;20059;-62
2022/05/05 02:00:15;;;;;;;9.23;5.60;;;9.10;99.90;;;;;;5085739;28;20484;-62
2022/05/05 02:02:45;;;;;;;9.63;5.40;;;9.00;99.90;;;;;;5083336;28;20686;-61
2022/05/05 02:05:11;;;;;;;12.00;5.78;;;9.00;99.90;;;;;;5085660;28;20082;-62
2022/05/05 02:07:37;;;;;;;9.80;5.72;;;8.90;99.90;;;;;;5083707;28;20125;-61
2022/05/05 02:10:04;;;;;;;11.40;6.18;;;8.90;99.90;;;;;;5085882;28;20055;-63
2022/05/05 02:12:30;;;;;;;12.90;6.28;;;8.90;99.90;;;;;;5082995;28;20488;-62
2022/05/05 02:14:56;;;;;;;9.18;5.63;;;8.90;99.90;;;;;;5085876;28;20483;-62
2022/05/05 02:17:21;;;;;;;10.43;6.20;;;8.80;99.90;;;;;;5084571;28;20044;-62
2022/05/05 02:19:47;;;;;;;12.32;6.30;;;8.80;99.90;;;;;;5086466;28;20461;-61
2022/05/05 02:22:14;;;;;;;12.18;5.60;;;8.70;99.90;;;;;;5086151;28;20051;-62
2022/05/05 02:24:39;;;;;;;11.15;5.85;;;8.60;99.90;;;;;;5084318;28;20040;-64
2022/05/05 02:27:05;;;;;;;11.25;5.97;;;8.60;99.90;;;;;;5084430;28;20424;-62
2022/05/05 02:29:31;;;;;;;9.93;6.07;;;8.60;99.90;;;;;;5084594;28;20169;-61
2022/05/05 02:31:56;;;;;;;12.18;5.93;;;8.60;99.90;;;;;;5091144;28;20224;-62
2022/05/05 02:34:22;;;;;;;12.05;6.82;;;8.50;99.90;;;;;;5087800;28;20044;-62
2022/05/05 02:39:31;;;;;;;11.23;6.00;;;8.40;99.90;;;;;;5089258;28;20452;-62
2022/05/05 02:41:57;;;;;;;12.05;5.88;;;8.40;99.90;;;;;;5087398;28;20072;-62
2022/05/05 02:44:22;;;;;;;11.05;6.70;;;8.30;99.90;;;;;;5088786;28;20044;-62
2022/05/05 02:46:48;;;;;;;9.75;5.95;;;8.30;99.90;;;;;;5089127;28;20067;-64
2022/05/05 02:49:14;;;;;;;13.05;6.75;;;8.30;99.90;;;;;;5089630;28;20055;-61
2022/05/05 02:51:40;;;;;;;10.65;6.47;;;8.20;99.90;;;;;;5087692;28;20123;-62
2022/05/05 02:56:49;;;;;;;11.75;6.20;;;8.20;99.90;;;;;;5080538;28;20036;-62
2022/05/05 02:59:15;;;;;;;11.88;6.90;;;8.10;99.90;;;;;;5089464;28;20440;-62
2022/05/05 03:01:41;;;;;;;12.38;6.35;;;8.10;99.90;;;;;;5087774;28;20411;-62
2022/05/05 03:04:06;;;;;;;13.95;6.75;;;8.10;99.90;;;;;;5089112;28;20062;-62
2022/05/05 03:06:32;;;;;;;12.00;6.93;;;8.00;99.90;;;;;;5084459;28;20432;-62
2022/05/05 03:08:58;;;;;;;11.52;7.03;;;8.00;99.90;;;;;;5089613;28;20032;-61
2022/05/05 03:11:23;;;;;;;15.18;7.00;;;8.00;99.90;;;;;;5089257;28;20032;-62
2022/05/05 03:13:49;;;;;;;12.40;6.72;;;7.90;99.90;;;;;;5089893;28;20048;-62
2022/05/05 03:16:14;;;;;;;12.50;6.38;;;7.90;99.90;;;;;;5089108;28;20078;-63
2022/05/05 03:18:40;;;;;;;9.65;6.20;;;7.90;99.90;;;;;;5091095;28;20437;-62
2022/05/05 03:21:07;;;;;;;11.27;6.18;;;7.80;99.90;;;;;;5094540;28;20066;-61
2022/05/05 03:23:32;;;;;;;13.45;6.78;;;7.80;99.90;;;;;;5088647;28;20063;-63
2022/05/05 03:25:58;;;;;;;12.60;6.68;;;7.80;99.90;;;;;;5089406;28;20036;-61
2022/05/05 03:28:24;;;;;;;9.48;6.10;;;7.80;99.90;;;;;;5089784;28;20036;-62
2022/05/05 03:30:49;;;;;;;9.43;6.22;;;7.70;99.90;;;;;;5091087;28;20036;-63
2022/05/05 03:33:15;;;;;;;10.93;6.35;;;7.70;99.90;;;;;;5086776;28;20071;-62
2022/05/05 03:35:41;;;;;;;17.42;7.22;;;7.70;99.90;;;;;;5087240;28;20043;-61
2022/05/05 03:38:07;;;;;;;12.60;7.15;;;7.70;99.90;;;;;;5090668;28;20036;-61
2022/05/05 03:40:32;;;;;;;11.77;7.18;;;7.60;99.90;;;;;;5088713;28;20127;-62
2022/05/05 03:42:58;;;;;;;10.63;6.35;;;7.60;99.90;;;;;;5091611;28;20043;-62
2022/05/05 03:45:23;;;;;;;9.48;6.45;;;7.60;99.90;;;;;;5087138;28;20051;-61
2022/05/05 03:47:49;;;;;;;9.38;6.30;;;7.50;99.90;;;;;;5086875;28;20101;-62
2022/05/05 03:50:15;;;;;;;11.95;7.00;;;7.50;99.90;;;;;;5087710;28;20047;-63
2022/05/05 03:52:41;;;;;;;9.43;6.18;;;7.50;99.90;;;;;;5091080;28;20123;-61
2022/05/05 03:55:07;;;;;;;11.15;6.35;;;7.40;99.90;;;;;;5088498;28;20044;-61
2022/05/05 03:57:33;;;;;;;9.48;6.13;;;7.40;99.90;;;;;;5086026;28;20064;-62
2022/05/05 03:59:59;;;;;;;10.57;6.13;;;7.30;99.90;;;;;;5090684;28;20491;-62
2022/05/05 04:02:25;;;;;;;12.85;6.72;;;7.30;99.90;;;;;;5088313;28;20116;-61
2022/05/05 04:04:51;;;;;;;10.57;6.97;;;7.30;99.90;;;;;;5086795;28;20119;-62
2022/05/05 04:07:16;;;;;;;11.23;6.95;;;7.30;99.90;;;;;;5087212;28;20380;-62
2022/05/05 04:09:42;;;;;;;10.40;6.50;;;7.30;99.90;;;;;;5089862;28;20406;-62
2022/05/05 04:12:08;;;;;;;10.23;6.53;;;7.30;99.90;;;;;;5087543;28;20044;-62
2022/05/05 04:14:34;;;;;;;11.02;6.55;;;7.30;99.90;;;;;;5089894;28;20471;-61
2022/05/05 04:17:00;;;;;;;12.25;6.60;;;7.40;99.90;;;;;;5087369;28;20115;-62
2022/05/05 04:19:26;;;;;;;10.48;7.22;;;7.40;99.90;;;;;;5087152;28;20128;-63
2022/05/05 04:21:52;;;;;;;13.68;7.03;;;7.30;99.90;;;;;;5088536;28;20039;-62
2022/05/05 04:24:17;;;;;;;11.52;6.75;;;7.30;99.90;;;;;;5087972;28;20051;-61
2022/05/05 04:26:45;;;;;;;11.60;7.10;;;7.30;99.90;;;;;;5087631;28;20043;-62
2022/05/05 04:29:11;;;;;;;9.07;6.53;;;7.30;99.90;;;;;;5088693;28;20365;-62
2022/05/05 04:31:37;;;;;;;10.82;7.07;;;7.30;99.90;;;;;;5088910;28;20064;-63
2022/05/05 04:34:04;;;;;;;10.75;7.32;;;7.30;99.90;;;;;;5088323;28;20063;-62
2022/05/05 04:36:34;;;;;;;12.18;7.60;;;7.30;99.90;;;;;;5083077;28;20173;-63
2022/05/05 04:39:01;;;;;;;14.10;7.78;;;7.30;99.90;;;;;;5082933;28;20043;-62
2022/05/05 04:41:27;;;;;;;12.88;8.43;;;7.30;99.90;;;;;;5085668;28;20104;-62
2022/05/05 04:43:52;;;;;;;12.73;8.02;;;7.30;99.90;;;;;;5089854;28;20119;-62
2022/05/05 04:46:18;;;;;;;14.52;8.48;;;7.30;99.90;;;;;;5088051;28;20059;-62
2022/05/05 04:48:43;;;;;;;14.93;7.97;;;7.30;99.90;;;;;;5088780;28;20455;-62
2022/05/05 04:51:09;;;;;;;14.07;8.25;;;7.30;99.90;;;;;;5076708;28;20048;-62
2022/05/05 04:53:34;;;;;;;13.18;8.25;;;7.30;99.90;;;;;;5085876;28;20036;-62
2022/05/05 04:56:00;;;;;;;10.23;7.25;;;7.30;99.90;;;;;;5086341;28;20036;-62
2022/05/05 04:58:26;;;;;;;11.57;7.35;;;7.40;99.90;;;;;;5086153;28;20194;-62
2022/05/05 05:00:53;;;;;;;12.40;8.20;;;7.40;99.90;;;;;;5081460;28;20044;-62
2022/05/05 05:03:39;;;;;;;14.32;7.90;;;7.50;99.90;;;;;;5082125;28;20218;-64
2022/05/05 05:06:06;;;;;;;10.98;7.72;;;7.50;99.90;;;;;;5082495;28;20119;-62
2022/05/05 05:08:33;;;;;;;10.25;7.45;;;7.60;99.90;;;;;;5081883;28;20532;-62
2022/05/05 05:10:59;;;;;;;12.60;7.95;;;7.70;99.90;;;;;;5081659;28;20036;-63
2022/05/05 05:13:25;;;;;;;12.18;7.88;;;7.70;99.90;;;;;;5083287;28;20097;-61
2022/05/05 05:15:51;;;;;;;14.32;8.27;;;7.80;99.90;;;;;;5084194;28;20111;-63
2022/05/05 05:18:16;;;;;;;13.10;8.45;;;7.80;99.90;;;;;;5085769;28;20335;-62
2022/05/05 05:20:42;;;;;;;15.43;8.68;;;7.90;99.90;;;;;;5085806;28;20127;-62
2022/05/05 05:23:07;;;;;;;12.05;7.80;;;7.90;99.90;;;;;;5084189;28;20444;-61
2022/05/05 05:25:33;;;;;;;13.20;8.38;;;8.00;99.90;;;;;;5086044;28;20059;-62
2022/05/05 05:27:59;;;;;;;12.00;8.02;;;8.10;99.90;;;;;;5081667;28;20101;-62
2022/05/05 05:30:24;;;;;;;12.52;8.70;;;8.40;99.90;;;;;;5088563;28;20036;-61
2022/05/05 05:32:50;;;;;;;12.55;8.35;;;8.50;99.90;;;;;;5085568;28;20398;-62
2022/05/05 05:35:15;;;;;;;12.25;8.18;;;8.60;99.90;;;;;;5083260;28;20356;-62
2022/05/05 05:37:41;;;;;;;14.73;8.65;;;8.70;99.90;;;;;;5082448;28;20045;-63
2022/05/05 05:40:07;;;;;;;13.32;8.63;;;8.90;99.90;;;;;;5083460;28;20060;-62
2022/05/05 05:42:33;;;;;;;13.80;8.90;;;9.00;99.90;;;;;;5081766;28;20178;-61
2022/05/05 05:44:58;;;;;;;12.02;7.93;;;9.20;99.90;;;;;;5086410;28;20127;-62
2022/05/05 05:47:24;;;;;;;16.92;8.77;;;9.30;99.90;;;;;;5087456;28;20096;-61
2022/05/05 05:49:49;;;;;;;13.38;8.43;;;9.40;99.90;;;;;;5081310;28;20186;-63
2022/05/05 05:52:15;;;;;;;12.88;8.63;;;9.50;99.90;;;;;;5083028;28;20055;-63
2022/05/05 05:54:40;;;;;;;14.38;9.07;;;9.70;99.90;;;;;;5084096;28;20052;-64
2022/05/05 05:57:06;;;;;;;15.23;10.20;;;9.80;99.90;;;;;;5084674;28;20048;-61
2022/05/05 05:59:35;;;;;;;14.57;9.38;;;9.90;99.90;;;;;;5086680;28;20105;-61
2022/05/05 06:04:44;;;;;;;13.60;9.40;;;10.10;99.90;;;;;;5084310;28;20048;-62
2022/05/05 06:07:10;;;;;;;16.10;9.65;;;10.30;99.90;;;;;;5088145;28;20206;-61
2022/05/05 06:09:35;;;;;;;16.75;9.63;;;10.40;99.90;;;;;;5084288;28;20036;-62
2022/05/05 06:12:03;;;;;;;14.00;9.18;;;10.60;99.90;;;;;;5085085;28;20036;-63
2022/05/05 06:14:29;;;;;;;18.73;9.52;;;10.70;99.90;;;;;;5086617;28;20127;-62
2022/05/05 06:16:54;;;;;;;14.63;9.90;;;11.00;99.90;;;;;;5085696;28;20145;-62
2022/05/05 06:19:20;;;;;;;17.85;10.30;;;11.20;99.90;;;;;;5084318;28;20135;-62
2022/05/05 06:21:46;;;;;;;14.88;9.75;;;11.40;99.90;;;;;;5085987;28;20040;-62
2022/05/05 06:24:11;;;;;;;14.88;9.35;;;11.70;99.90;;;;;;5087081;28;20040;-62
2022/05/05 06:26:37;;;;;;;11.95;9.07;;;11.90;99.90;;;;;;5083606;28;20100;-62
2022/05/05 06:29:03;;;;;;;16.35;10.07;;;12.20;99.90;;;;;;5085894;28;20051;-64
2022/05/05 06:31:28;;;;;;;12.88;8.70;;;12.50;99.90;;;;;;5083808;28;20353;-62
2022/05/05 06:33:54;;;;;;;14.65;9.10;;;12.80;99.90;;;;;;5087320;28;20344;-62
2022/05/05 06:36:19;;;;;;;16.45;9.30;;;13.00;99.90;;;;;;5085696;28;20463;-62
2022/05/05 06:38:45;;;;;;;13.40;8.45;;;13.10;99.90;;;;;;5085340;28;20048;-62
2022/05/05 06:41:12;;;;;;;15.05;8.93;;;13.20;99.90;;;;;;5082648;28;20482;-62
2022/05/05 06:43:37;;;;;;;14.25;8.68;;;13.30;99.90;;;;;;5086677;28;20086;-62
2022/05/05 06:46:03;;;;;;;15.02;9.30;;;13.40;99.90;;;;;;5085825;28;20068;-61
2022/05/05 06:48:29;;;;;;;13.35;8.50;;;13.60;99.90;;;;;;5086589;28;20517;-63
2022/05/05 06:50:55;;;;;;;13.43;8.70;;;13.70;99.90;;;;;;5084401;28;20105;-62
2022/05/05 06:53:20;;;;;;;14.30;8.13;;;13.70;99.90;;;;;;5074141;28;20036;-62
2022/05/05 06:55:47;;;;;;;15.02;8.48;;;13.80;99.90;;;;;;5082253;28;20455;-60
2022/05/05 06:58:13;;;;;;;13.50;7.82;;;13.90;99.90;;;;;;5087327;28;20537;-61
2022/05/05 07:03:22;;;;;;;12.10;7.93;;;14.10;99.90;;;;;;5081463;28;20055;-60
2022/05/05 07:05:48;;;;;;;12.20;7.70;;;14.10;99.90;;;;;;5082015;28;20040;-62
2022/05/05 07:08:13;;;;;;;12.95;7.55;;;14.20;99.90;;;;;;5082212;28;20047;-63
2022/05/05 07:10:54;;;;;;;13.88;7.95;;;14.20;99.90;;;;;;5084847;28;20036;-61
2022/05/05 07:13:24;;;;;;;16.00;8.82;;;14.30;99.90;;;;;;5083780;28;20047;-61
2022/05/05 07:15:50;;;;;;;15.00;8.35;;;14.40;99.90;;;;;;5084270;28;20044;-61
2022/05/05 07:18:16;;;;;;;14.95;8.43;;;14.50;99.90;;;;;;5089194;28;20079;-61
2022/05/05 07:20:42;;;;;;;13.30;7.80;;;14.60;99.90;;;;;;5088525;28;20063;-62
2022/05/05 07:23:12;;;;;;;14.55;7.85;;;14.60;99.90;;;;;;5089673;28;20123;-62
2022/05/05 07:25:41;;;;;;;12.38;7.50;;;14.70;99.90;;;;;;5089564;28;20040;-65
2022/05/05 07:28:07;;;;;;;12.60;7.60;;;14.60;99.90;;;;;;5089486;28;20051;-62
2022/05/05 07:30:33;;;;;;;14.75;8.40;;;14.70;99.90;;;;;;5089711;28;20055;-62
2022/05/05 07:33:00;;;;;;;12.88;8.27;;;14.80;99.90;;;;;;5088293;28;20036;-64
2022/05/05 07:35:25;;;;;;;13.57;8.13;;;14.90;99.90;;;;;;5088073;28;20036;-62
2022/05/05 07:37:51;;;;;;;13.60;8.20;;;15.00;99.50;;;;;;5088788;28;20050;-62
2022/05/05 07:40:17;;;;;;;14.13;7.35;;;15.10;99.00;;;;;;5091284;28;20036;-62
2022/05/05 07:42:42;;;;;;;14.68;8.05;;;15.00;98.50;;;;;;5087882;28;20039;-62
2022/05/05 07:45:09;;;;;;;12.23;7.38;;;15.10;98.30;;;;;;5086659;28;20044;-61
2022/05/05 07:47:34;;;;;;;16.90;8.05;;;15.30;97.90;;;;;;5087078;28;20405;-63
2022/05/05 07:50:01;;;;;;;12.40;7.63;;;15.60;97.80;;;;;;5088631;28;20107;-64
2022/05/05 07:52:27;;;;;;;15.23;7.80;;;15.80;97.70;;;;;;5083620;28;20117;-63
2022/05/05 07:54:53;;;;;;;12.80;7.43;;;15.80;96.10;;;;;;5088450;28;20472;-63
2022/05/05 07:57:20;;;;;;;12.15;7.22;;;16.00;95.80;;;;;;5088867;28;20113;-63
2022/05/05 07:59:46;;;;;;;12.50;6.63;;;16.10;95.50;;;;;;5089337;28;20051;-63
2022/05/05 08:02:15;;;;;;;10.73;6.03;;;16.20;94.80;;;;;;5086630;28;20087;-63
2022/05/05 08:04:44;;;;;;;11.10;6.35;;;16.20;93.70;;;;;;5088722;28;20143;-62
2022/05/05 08:07:10;;;;;;;11.77;6.85;;;16.30;93.40;;;;;;5081469;28;20044;-64
2022/05/05 08:09:36;;;;;;;13.65;6.75;;;16.40;93.50;;;;;;5089740;28;20138;-62
2022/05/05 08:12:03;;;;;;;14.27;6.50;;;16.50;93.50;;;;;;5089299;28;20507;-64
2022/05/05 08:14:29;;;;;;;17.02;6.60;;;16.40;93.20;;;;;;5089943;28;20039;-63
2022/05/05 08:16:56;;;;;;;10.48;5.95;;;16.40;92.50;;;;;;5081166;28;20032;-62
2022/05/05 08:19:22;;;;;;;10.57;5.90;;;16.30;92.30;;;;;;5090201;28;20143;-63
2022/05/05 08:21:48;;;;;;;11.95;6.13;;;16.40;92.40;;;;;;5087649;28;20139;-63
2022/05/05 08:29:43;;;;;;;11.93;6.50;;;16.90;90.10;;;;;;5080216;28;20377;-63
2022/05/05 08:32:09;;;;;;;9.15;5.63;;;17.20;90.70;;;;;;5086227;28;20115;-62
2022/05/05 08:34:35;;;;;;;10.25;5.45;;;17.30;89.10;;;;;;5084827;28;20089;-63
2022/05/05 08:37:00;;;;;;;10.90;5.75;;;17.50;86.80;;;;;;5085689;28;20056;-63
2022/05/05 08:39:26;;;;;;;10.32;5.35;;;17.80;84.70;;;;;;5086288;28;20479;-64
2022/05/05 08:41:55;;;;;;;10.73;5.63;;;18.00;83.90;;;;;;5085314;28;20036;-63
2022/05/05 08:44:21;;;;;;;8.32;5.35;;;17.90;80.20;;;;;;5089526;28;20738;-63
2022/05/05 08:46:48;;;;;;;9.48;5.38;;;17.80;80.20;;;;;;5090380;28;20120;-64
2022/05/05 08:49:17;;;;;;;8.73;5.45;;;17.90;81.40;;;;;;5090138;28;20044;-63
2022/05/05 08:51:45;;;;;;;10.50;6.00;;;18.10;82.30;;;;;;5086568;28;20046;-63
2022/05/05 08:54:22;;;;;;;9.75;6.00;;;18.10;80.70;;;;;;5089494;28;20046;-63
2022/05/05 08:56:48;;;;;;;9.60;6.10;;;18.20;80.80;;;;;;5089667;28;20399;-63
2022/05/05 08:59:14;;;;;;;9.82;6.10;;;18.20;77.60;;;;;;5087393;28;20063;-64
2022/05/05 09:01:41;;;;;;;13.27;6.53;;;18.20;76.40;;;;;;5087026;28;20507;-63
2022/05/05 09:04:08;;;;;;;10.27;6.13;;;18.00;76.80;;;;;;5085714;28;20344;-65
2022/05/05 09:06:47;;;;;;;12.18;6.68;;;18.10;77.60;;;;;;5065614;28;20136;-61
2022/05/05 09:09:30;;;;;;;11.85;6.25;;;18.10;77.10;;;;;;5069138;28;20088;-64
2022/05/05 09:12:12;;;;;;;10.30;6.10;;;18.00;74.70;;;;;;5069229;28;20349;-64
2022/05/05 09:14:41;;;;;;;11.93;5.85;;;17.90;74.90;;;;;;5081481;28;20051;-63
2022/05/05 09:17:08;;;;;;;12.00;6.30;;;18.00;73.50;;;;;;5089149;28;20051;-64
2022/05/05 09:19:38;;;;;;;11.07;5.97;;;17.90;73.90;;;;;;5088228;28;20464;-61
2022/05/05 09:22:05;;;;;;;9.43;6.05;;;18.10;75.00;;;;;;5086676;28;20062;-62
2022/05/05 09:24:36;;;;;;;11.40;5.90;;;18.20;74.70;;;;;;5088075;28;20039;-62
2022/05/05 09:27:21;;;;;;;10.38;6.20;;;18.30;74.20;;;;;;5088018;28;20065;-62
2022/05/05 09:30:04;;;;;;;9.40;6.28;;;18.30;74.40;;;;;;5089256;28;20122;-61
2022/05/05 09:32:36;;;;;;;12.02;6.50;;;18.20;75.80;;;;;;5088144;28;20043;-62
2022/05/05 09:35:18;;;;;;;9.90;6.40;;;18.50;75.20;;;;;;5084644;28;20123;-63
2022/05/05 09:37:48;;;;;;;11.10;6.55;;;18.50;73.60;;;;;;5067613;28;20042;-62
2022/05/05 09:40:18;;;;;;;9.75;5.88;;;18.50;70.80;;;;;;5082034;28;20116;-62
2022/05/05 09:42:46;;;;;;;12.38;6.85;;;18.70;70.70;;;;;;5086764;28;20050;-62
2022/05/05 09:45:22;;;;;;;11.70;6.05;;;18.80;70.30;;;;;;5086545;28;20063;-61
2022/05/05 09:48:01;;;;;;;9.02;5.65;;;18.70;70.00;;;;;;5087554;28;20044;-62
2022/05/05 09:50:33;;;;;;;9.48;4.95;;;19.00;72.30;;;;;;5069259;28;20074;-62
2022/05/05 09:58:52;;;;;;;12.77;6.72;;;19.70;71.20;;;;;;5086458;28;20412;-61
2022/05/05 10:01:24;;;;;;;8.77;5.72;;;19.50;68.00;;;;;;5088043;28;20046;-60
2022/05/05 10:04:00;;;;;;;12.65;6.38;;;19.70;68.40;;;;;;5085683;28;20043;-60
2022/05/05 10:06:39;;;;;;;8.85;6.10;;;19.60;67.00;;;;;;5086030;28;20051;-62
2022/05/05 10:09:07;;;;;;;10.13;5.93;;;19.80;66.40;;;;;;5082021;28;20074;-61
2022/05/05 10:11:34;;;;;;;10.82;6.20;;;20.00;66.40;;;;;;5081069;28;20036;-60
2022/05/05 10:14:01;;;;;;;10.43;6.20;;;20.00;66.10;;;;;;5087251;28;20116;-60
2022/05/05 10:16:30;;;;;;;10.60;5.85;;;20.00;64.80;;;;;;5083802;28;20092;-62
2022/05/05 10:18:56;;;;;;;9.38;5.80;;;19.90;63.50;;;;;;5084789;28;20036;-61
2022/05/05 10:21:28;;;;;;;9.63;5.90;;;19.90;64.20;;;;;;5083925;28;20389;-59
2022/05/05 10:24:22;;;;;;;13.35;7.25;;;19.90;64.00;;;;;;5085795;28;20761;-61
2022/05/05 10:26:50;;;;;;;13.45;7.30;;;20.00;62.90;;;;;;5076877;28;20055;-61
2022/05/05 10:29:38;;;;;;;16.20;8.52;;;20.10;63.00;;;;;;5087274;28;20036;-60
2022/05/05 10:32:25;;;;;;;14.40;7.25;;;20.20;61.50;;;;;;5086920;28;20059;-61
2022/05/05 10:35:06;;;;;;;10.98;5.70;;;20.10;62.10;;;;;;5086377;28;20060;-61
2022/05/05 10:37:36;;;;;;;10.13;6.10;;;20.30;60.60;;;;;;5083685;28;20032;-60
2022/05/05 10:40:06;;;;;;;9.77;6.25;;;20.50;62.20;;;;;;5086251;28;20139;-63
2022/05/05 10:42:41;;;;;;;10.57;6.10;;;20.70;63.00;;;;;;5081083;28;20605;-62
2022/05/05 10:45:30;;;;;;;11.10;6.75;;;20.80;63.20;;;;;;5086393;28;20126;-61
2022/05/05 10:47:58;;;;;;;9.57;6.68;;;20.80;61.90;;;;;;5083102;28;21542;-62
2022/05/05 10:50:33;;;;;;;9.05;6.68;;;20.60;62.10;;;;;;5080391;28;20048;-62
2022/05/05 10:53:00;;;;;;;9.45;6.22;;;20.60;61.70;;;;;;5088751;28;20047;-62
2022/05/05 10:55:32;;;;;;;9.00;6.82;;;20.70;61.90;;;;;;5087082;28;20048;-62
2022/05/05 10:57:57;;;;;;;10.65;6.30;;;20.70;60.90;;;;;;5086967;28;20052;-63
2022/05/05 11:00:24;;;;;;;10.45;6.43;;;20.70;60.40;;;;;;5090542;28;20058;-63
2022/05/05 11:02:58;;;;;;;11.55;7.25;;;20.90;60.30;;;;;;5088502;28;20044;-63
2022/05/05 11:05:27;;;;;;;9.27;6.80;;;20.90;59.30;;;;;;5086358;28;20048;-63
2022/05/05 11:07:54;;;;;;;8.60;6.40;;;20.90;60.00;;;;;;5089770;28;20028;-63
2022/05/05 11:13:40;;;;;;;9.27;6.88;;;21.30;60.40;;;;;;5083362;28;20456;-64
2022/05/05 11:22:24;;;;;;;11.30;6.93;;;21.80;59.60;;;;;;5084670;28;20048;-63
2022/05/05 11:24:51;;;;;;;10.88;7.13;;;21.90;60.40;;;;;;5085616;28;20047;-63
2022/05/05 11:27:25;;;;;;;9.85;6.68;;;21.80;59.40;;;;;;5084442;28;20128;-62
2022/05/05 11:29:55;;;;;;;9.23;6.57;;;21.90;57.80;;;;;;5089339;28;20048;-63
2022/05/05 11:32:28;;;;;;;10.27;6.85;;;21.70;58.80;;;;;;5082033;28;20137;-62
2022/05/05 11:34:53;;;;;;;12.20;7.57;;;21.70;58.60;;;;;;5090827;28;20059;-62
2022/05/05 11:37:19;;;;;;;12.18;6.72;;;21.80;57.80;;;;;;5084600;28;20060;-62
2022/05/05 11:39:47;;;;;;;9.55;6.35;;;21.70;57.70;;;;;;5085755;28;20051;-62
2022/05/05 11:42:14;;;;;;;12.98;7.97;;;21.70;57.00;;;;;;5089785;28;20081;-64
2022/05/05 11:44:41;;;;;;;11.00;7.82;;;21.50;57.80;;;;;;5083125;28;20048;-63
2022/05/05 11:47:14;;;;;;;12.18;8.10;;;21.20;58.00;;;;;;5082347;28;20036;-63
2022/05/05 11:49:46;;;;;;;13.02;8.38;;;21.10;58.50;;;;;;5071553;28;20045;-64
2022/05/05 11:52:17;;;;;;;12.38;8.00;;;21.20;58.70;;;;;;5087265;28;20874;-62
2022/05/05 11:54:47;;;;;;;10.18;7.03;;;21.30;59.10;;;;;;5085048;28;20486;-62
2022/05/05 11:57:29;;;;;;;10.77;7.45;;;21.10;59.10;;;;;;5090629;28;20101;-62
2022/05/05 12:02:39;;;;;;;12.20;7.50;;;20.70;59.70;;;;;;5085616;28;20052;-62
2022/05/05 12:05:08;;;;;;;10.43;7.63;;;20.60;59.80;;;;;;5087691;28;20036;-63
2022/05/05 12:07:34;;;;;;;9.10;6.70;;;20.70;59.80;;;;;;5086380;28;20601;-61
2022/05/05 12:10:08;;;;;;;12.40;8.23;;;20.60;59.70;;;;;;5086123;28;20058;-62
2022/05/05 12:12:37;;;;;;;10.90;6.45;;;20.60;59.30;;;;;;5082206;28;20123;-61
2022/05/05 12:15:07;;;;;;;9.80;6.68;;;20.60;60.40;;;;;;5087888;28;20400;-63
2022/05/05 12:17:37;;;;;;;10.07;6.60;;;20.60;60.70;;;;;;5082007;28;20127;-62
2022/05/05 12:20:07;;;;;;;10.05;6.32;;;20.70;60.40;;;;;;5080079;28;20048;-63
2022/05/05 12:22:37;;;;;;;10.07;7.05;;;20.50;60.30;;;;;;5082693;28;20039;-62
2022/05/05 12:25:06;;;;;;;10.35;6.00;;;20.60;59.80;;;;;;5084371;28;20044;-64
2022/05/05 12:27:32;;;;;;;10.90;6.13;;;20.70;60.80;;;;;;5086553;28;20040;-62
2022/05/05 12:29:58;;;;;;;8.45;6.25;;;20.70;60.20;;;;;;5086191;28;20048;-63
2022/05/05 12:32:23;;;;;;;11.40;5.80;;;20.80;58.70;;;;;;5085420;28;20052;-63
2022/05/05 12:35:01;;;;;;;9.20;6.00;;;20.80;58.60;;;;;;5087562;28;20130;-63
2022/05/05 12:37:26;;;;;;;8.90;5.32;;;20.80;58.60;;;;;;5087426;28;20036;-63
2022/05/05 12:40:06;;;;;;;10.18;5.50;;;20.90;58.40;;;;;;5088393;28;20066;-62
2022/05/05 12:42:43;;;;;;;14.02;5.13;;;21.10;58.90;;;;;;5086305;28;20036;-63
2022/05/05 12:45:24;;;;;;;8.77;5.78;;;21.30;59.10;;;;;;5088621;28;20482;-62
2022/05/05 12:47:51;;;;;;;8.45;4.75;;;21.40;58.30;;;;;;5081155;28;20154;-63
2022/05/05 12:50:33;;;;;;;6.97;4.13;;;21.50;56.80;;;;;;5089580;28;20093;-63
2022/05/05 13:01:22;;;;;;;8.40;4.18;;;21.40;56.40;;;;;;5090349;28;20056;-63
2022/05/05 13:03:47;;;;;;;6.45;4.03;;;21.50;57.40;;;;;;5087845;28;20357;-63
2022/05/05 13:06:13;;;;;;;8.27;4.18;;;21.60;57.20;;;;;;5087530;28;20120;-64
2022/05/05 13:08:38;;;;;;;8.20;4.53;;;21.60;55.80;;;;;;5088264;28;20425;-63
2022/05/05 13:11:04;;;;;;;8.57;4.88;;;21.40;54.40;;;;;;5090172;28;20091;-63
2022/05/05 13:13:29;;;;;;;7.90;4.88;;;21.50;54.70;;;;;;5086585;28;20048;-64
2022/05/05 13:15:55;;;;;;;5.72;3.50;;;21.50;55.30;;;;;;5087971;28;20097;-63
2022/05/05 13:18:20;;;;;;;6.43;3.50;;;21.50;54.30;;;;;;5082011;28;20047;-63
2022/05/05 13:20:46;;;;;;;6.50;3.65;;;21.60;54.30;;;;;;5084572;28;20055;-63
2022/05/05 13:23:12;;;;;;;6.18;3.88;;;21.60;53.70;;;;;;5087159;28;20038;-63
2022/05/05 13:25:37;;;;;;;6.15;3.45;;;21.70;54.60;;;;;;5078053;28;20044;-63
2022/05/05 13:28:04;;;;;;;6.90;4.05;;;21.70;54.80;;;;;;5086316;28;20040;-63
2022/05/05 13:30:29;;;;;;;6.30;3.58;;;21.70;53.60;;;;;;5079404;28;20040;-62
2022/05/05 13:32:55;;;;;;;7.25;3.58;;;21.70;53.30;;;;;;5081806;28;20098;-62
2022/05/05 13:35:21;;;;;;;5.68;3.35;;;21.70;52.30;;;;;;5088493;28;20067;-63